Norcatur, Kansas
Current Conditions -  °F | °C
As of 12:53 AM on Friday 31 Oct 2014 (Local Time) from KMCK Reporting Station
Clear Clear  
Wind Chill: 31°   Ceiling: Unl
Heat Index: 37°   Visibility: 10mi
Dew Point: 30°   Wind: 8mph
Humidity: 76%   Direction: 50°NE
Pressure: 30.45"   Gusts: NA
Location:  39.84°N, 100.19°W
Report Text: KMCK 310553Z AUTO 05007KT 10SM CLR 03/M01 A3045 RMK AO2 SLP313 T00281011 10133 20028 402060028 53020
Loading
Personal Weather Stations






























Interactive Weather Map
Tropical Storm Tracking
New forecast layout! Learn more

10-Day Weather Forecast

Advertisements
Track Severe Weather on mobile